Bradenton, FL (34281)

7:51 PM EDT on April 18, 2015 (GMT -0400)
Manatee at 26th St W | | Change Station
CLOSE
Current Station
Personal Weather Station
Location: Bradenton, FL
Elevation: 33 ft
Nearby Weather Stations

Elev 33 ft 27.50 °N, 82.59 °W | Updated 4 seconds ago

Clear
Clear
79.3 °F
Feels Like 83 °F
N
1.8
Wind Variable Wind from WNW
Gusts 4.9 mph

Today
High -- | Low -- °F
--% Chance of Precip.
Yesterday
High -- | Low -- °F
Precip. -- in
7:03 AM 7:56 PM
New Moon, 0% visible
Pressure 29.92 in
Visibility 10.0 miles
Clouds Few 1300 ft
Heat Index 83 °F
Dew Point 74 °F
Humidity 83%
Rainfall 0.00 in
Snow Depth Not available.
UV 0.0 out of 12
Pollen 8.80 out of 12
Air Quality Not available.
Flu Activity Local Activity
METAR KSRQ 182253Z 24008KT 10SM FEW013 27/23 A2992 RMK AO2 SLP131 T02670228

More Conditions Fewer Conditions

Pressure 29.92 in
Visibility 10.0 miles
Clouds Few 1300 ft
Heat Index 83 °F
Dew Point 74 °F
Humidity 83%
Rainfall 0.00 in
Snow Depth Not available.
UV 0.0 out of 12
Pollen 8.80 out of 12
Air Quality Not available.
Flu Activity Local Activity
METAR KSRQ 182253Z 24008KT 10SM FEW013 27/23 A2992 RMK AO2 SLP131 T02670228

More Conditions Fewer Conditions

10-Day Weather Forecast

Almanac

Astronomy

Apr. 18, 2015 Rise Set
Actual Time
Civil Twilight
Nautical Twilight
Astronomical Twilight
Moon
Length of Visible Light
Length of Day
Tomorrow will be .
, % of the Moon is Illuminated

Today's Extremes

State Highs State Lows

Community

WunderPhotos

Upload Photos

1,814,580 photos uploaded!

WunderBlogs® & News

Nearby

Air Quality

  Air Quality AQ Index Pollutant
Not available.

Snow Depth

Station Depth Elevation

Earthquake Activity

City Distance Mag. Time & Date
Minimum magnitude displayed is 2.5.

Coastal Water Temperatures

Place Temperature

Stations

Nearby Weather Stations

Station Location Temp. Windchill Dew Point Humidity Wind Precip. Elev Updated Type